Time;durP1;ratioP1;P1;durP2;ratioP2;P2;SDS_P1;SDS_P2;PMS_P1;PMS_P2;Temp;Humidity;BMP_temperature;BMP_pressure;BME280_temperature;BME280_humidity;BME280_pressure;Samples;Min_cycle;Max_cycle;Signal;HPM_P1;HPM_P2
2023/12/12 00:00:32;;;;;;;16.07;15.47;;;8.40;99.90;;;;;;5079495;28;20229;-63
2023/12/12 00:03:02;;;;;;;15.23;14.63;;;8.30;99.90;;;;;;5073135;28;20215;-63
2023/12/12 00:05:36;;;;;;;16.23;15.30;;;8.40;99.90;;;;;;5071435;28;20252;-63
2023/12/12 00:08:03;;;;;;;16.40;15.80;;;8.40;99.90;;;;;;5078628;28;20254;-64
2023/12/12 00:10:30;;;;;;;15.57;14.97;;;8.40;99.90;;;;;;5074814;28;20223;-62
2023/12/12 00:13:03;;;;;;;16.13;15.53;;;8.30;99.90;;;;;;5084212;28;20223;-63
2023/12/12 00:15:34;;;;;;;15.00;14.50;;;8.30;99.90;;;;;;5074092;28;20207;-63
2023/12/12 00:18:10;;;;;;;16.30;15.70;;;8.30;99.90;;;;;;5072339;28;20344;-62
2023/12/12 00:20:40;;;;;;;15.63;15.03;;;8.30;99.90;;;;;;5071829;28;20210;-64
2023/12/12 00:23:10;;;;;;;15.60;15.00;;;8.30;99.90;;;;;;5074554;28;20203;-64
2023/12/12 00:25:40;;;;;;;16.15;15.57;;;8.30;99.90;;;;;;5073517;28;20318;-63
2023/12/12 00:28:12;;;;;;;15.60;15.00;;;8.20;99.90;;;;;;5071949;28;20219;-62
2023/12/12 00:30:42;;;;;;;15.60;15.00;;;8.30;99.90;;;;;;5072602;28;20234;-63
2023/12/12 00:33:23;;;;;;;16.87;16.17;;;8.20;99.90;;;;;;5071770;28;20195;-62
2023/12/12 00:35:57;;;;;;;16.63;15.93;;;8.20;99.90;;;;;;5068008;28;20207;-62
2023/12/12 00:38:29;;;;;;;16.70;16.10;;;8.10;99.90;;;;;;5071864;28;20222;-61
2023/12/12 00:41:04;;;;;;;15.50;14.90;;;8.10;99.90;;;;;;5071131;28;20290;-64
2023/12/12 00:43:35;;;;;;;16.00;15.40;;;8.00;99.90;;;;;;5071514;28;20646;-62
2023/12/12 00:46:12;;;;;;;15.57;15.07;;;7.90;99.90;;;;;;5072382;28;20203;-64
2023/12/12 00:48:50;;;;;;;16.10;15.50;;;8.00;99.90;;;;;;5066951;28;20203;-63
2023/12/12 00:51:23;;;;;;;16.40;15.80;;;7.90;99.90;;;;;;5071236;28;20229;-63
2023/12/12 00:53:53;;;;;;;16.10;15.50;;;8.00;99.90;;;;;;5068471;28;20195;-65
2023/12/12 00:56:25;;;;;;;16.40;15.80;;;8.00;99.90;;;;;;5070984;28;20203;-62
2023/12/12 00:58:59;;;;;;;15.93;15.33;;;7.90;99.90;;;;;;5073370;28;20227;-63
2023/12/12 01:01:28;;;;;;;15.90;15.30;;;7.90;99.90;;;;;;5072326;28;20199;-62
2023/12/12 01:03:59;;;;;;;15.50;15.00;;;7.90;99.90;;;;;;5071334;28;20258;-62
2023/12/12 01:06:33;;;;;;;15.80;15.20;;;8.00;99.90;;;;;;5071101;28;20261;-64
2023/12/12 01:09:00;;;;;;;16.10;15.50;;;8.00;99.90;;;;;;5075531;28;20200;-62
2023/12/12 01:11:34;;;;;;;15.93;15.33;;;8.00;99.90;;;;;;5070300;28;20242;-63
2023/12/12 01:14:01;;;;;;;16.13;15.43;;;8.10;99.90;;;;;;5069764;28;20207;-63
2023/12/12 01:16:28;;;;;;;16.23;15.60;;;8.10;99.90;;;;;;5069929;28;20262;-63
2023/12/12 01:18:57;;;;;;;15.13;14.53;;;8.10;99.90;;;;;;5070710;28;20231;-63
2023/12/12 01:21:27;;;;;;;15.67;15.07;;;8.10;99.90;;;;;;5073872;28;20195;-63
2023/12/12 01:24:02;;;;;;;15.57;14.97;;;8.10;99.90;;;;;;5065549;28;20650;-63
2023/12/12 01:26:29;;;;;;;15.30;14.70;;;8.10;99.90;;;;;;5068829;28;20236;-64
2023/12/12 01:28:57;;;;;;;15.23;14.63;;;8.10;99.90;;;;;;5071380;28;20196;-63
2023/12/12 01:31:27;;;;;;;15.30;14.80;;;8.20;99.90;;;;;;5070169;28;20216;-62
2023/12/12 01:33:54;;;;;;;15.40;14.80;;;8.10;99.90;;;;;;5070929;28;20199;-62
2023/12/12 01:36:26;;;;;;;16.00;15.40;;;8.10;99.90;;;;;;5072322;28;20678;-64
2023/12/12 01:38:57;;;;;;;16.27;15.67;;;8.00;99.90;;;;;;5070816;28;20211;-62
2023/12/12 01:41:25;;;;;;;15.50;15.00;;;8.00;99.90;;;;;;5071518;28;20286;-63
2023/12/12 01:44:04;;;;;;;14.70;14.20;;;8.00;99.90;;;;;;5066954;28;20208;-62
2023/12/12 01:46:41;;;;;;;15.43;14.83;;;8.00;99.90;;;;;;5083447;28;20237;-63
2023/12/12 01:49:12;;;;;;;15.23;14.73;;;8.00;99.90;;;;;;5073188;28;20203;-62
2023/12/12 01:51:41;;;;;;;16.03;15.43;;;8.00;99.90;;;;;;5069488;28;20318;-64
2023/12/12 01:54:11;;;;;;;15.63;15.03;;;8.00;99.90;;;;;;5070023;28;20677;-64
2023/12/12 01:56:41;;;;;;;15.20;14.60;;;8.10;99.90;;;;;;5070602;28;20237;-61
2023/12/12 01:59:21;;;;;;;15.57;15.03;;;8.10;99.90;;;;;;5071476;28;20231;-64
2023/12/12 02:01:56;;;;;;;14.80;14.30;;;8.10;99.90;;;;;;5074099;28;20222;-63
2023/12/12 02:04:33;;;;;;;16.00;15.40;;;8.10;99.90;;;;;;5074810;28;20214;-63
2023/12/12 02:07:04;;;;;;;15.43;14.87;;;8.10;99.90;;;;;;5075445;28;20230;-65
2023/12/12 02:09:34;;;;;;;15.80;15.20;;;8.10;99.90;;;;;;5073927;28;20214;-63
2023/12/12 02:12:11;;;;;;;15.50;14.90;;;8.10;99.90;;;;;;5074240;28;20223;-62
2023/12/12 02:14:43;;;;;;;15.90;15.30;;;8.00;99.90;;;;;;5073007;28;20199;-64
2023/12/12 02:17:14;;;;;;;15.17;14.67;;;8.00;99.90;;;;;;5075962;28;20228;-62
2023/12/12 02:19:41;;;;;;;15.80;15.20;;;8.00;99.90;;;;;;5074398;28;20206;-64
2023/12/12 02:22:12;;;;;;;15.47;14.90;;;8.00;99.90;;;;;;5074614;28;20203;-64
2023/12/12 02:24:40;;;;;;;16.02;15.43;;;8.00;99.90;;;;;;5073870;28;20205;-63
2023/12/12 02:27:07;;;;;;;15.93;15.33;;;8.00;99.90;;;;;;5073507;28;20272;-64
2023/12/12 02:29:35;;;;;;;15.90;15.30;;;8.20;99.90;;;;;;5073613;28;20555;-63
2023/12/12 02:32:01;;;;;;;16.07;15.47;;;8.20;99.90;;;;;;5073343;28;20216;-65
2023/12/12 02:34:28;;;;;;;15.87;15.27;;;8.20;99.90;;;;;;5073150;28;20666;-63
2023/12/12 02:36:55;;;;;;;15.43;14.93;;;8.20;99.90;;;;;;5073241;28;20219;-64
2023/12/12 02:39:24;;;;;;;14.80;14.20;;;8.30;99.90;;;;;;5072894;28;20295;-63
2023/12/12 02:41:50;;;;;;;15.30;14.80;;;8.30;99.90;;;;;;5073008;28;20294;-65
2023/12/12 02:44:17;;;;;;;15.73;15.20;;;8.30;99.90;;;;;;5073511;28;20206;-63
2023/12/12 02:46:44;;;;;;;15.57;14.97;;;8.30;99.90;;;;;;5073006;28;20705;-65
2023/12/12 02:49:10;;;;;;;15.70;15.10;;;8.30;99.90;;;;;;5073433;28;20578;-65
2023/12/12 02:51:37;;;;;;;16.20;15.60;;;8.30;99.90;;;;;;5072634;28;20297;-64
2023/12/12 02:54:04;;;;;;;16.07;15.47;;;8.30;99.90;;;;;;5073164;28;20215;-65
2023/12/12 02:56:33;;;;;;;16.43;15.83;;;8.30;99.90;;;;;;5072599;28;20234;-63
2023/12/12 02:59:00;;;;;;;15.90;15.20;;;8.40;99.90;;;;;;5073479;28;20207;-63
2023/12/12 03:01:27;;;;;;;15.80;15.10;;;8.40;99.90;;;;;;5073082;28;20218;-64
2023/12/12 03:03:53;;;;;;;15.53;14.93;;;8.40;99.90;;;;;;5072953;28;20210;-68
2023/12/12 03:06:20;;;;;;;15.20;14.60;;;8.40;99.90;;;;;;5074881;28;20203;-63
2023/12/12 03:08:47;;;;;;;15.50;14.90;;;8.50;99.90;;;;;;5074009;28;20211;-63
2023/12/12 03:11:13;;;;;;;15.03;14.53;;;8.50;99.90;;;;;;5076092;28;20227;-63
2023/12/12 03:13:41;;;;;;;15.83;15.23;;;8.60;99.90;;;;;;5072504;28;20211;-63
2023/12/12 03:16:09;;;;;;;15.87;15.23;;;8.60;99.90;;;;;;5074458;28;20199;-65
2023/12/12 03:18:35;;;;;;;15.30;14.70;;;8.50;99.90;;;;;;5073778;28;20238;-64
2023/12/12 03:21:02;;;;;;;15.27;14.67;;;8.50;99.90;;;;;;5078598;28;20199;-63
2023/12/12 03:23:29;;;;;;;14.90;14.40;;;8.50;99.90;;;;;;5085713;28;20214;-66
2023/12/12 03:25:55;;;;;;;14.83;14.33;;;8.40;99.90;;;;;;5084692;28;20291;-64
2023/12/12 03:28:22;;;;;;;14.13;13.63;;;8.40;99.90;;;;;;5081365;28;20226;-64
2023/12/12 03:30:50;;;;;;;15.43;14.83;;;8.50;99.90;;;;;;5081633;28;20210;-63
2023/12/12 03:33:17;;;;;;;14.17;13.67;;;8.50;99.90;;;;;;5081223;28;20206;-63
2023/12/12 03:35:43;;;;;;;15.83;15.23;;;8.50;99.90;;;;;;5085940;28;20199;-63
2023/12/12 03:38:10;;;;;;;16.07;15.47;;;8.60;99.90;;;;;;5082004;28;20238;-65
2023/12/12 03:40:37;;;;;;;15.97;15.33;;;8.60;99.90;;;;;;5082199;28;20219;-67
2023/12/12 03:43:03;;;;;;;14.80;14.30;;;8.70;99.90;;;;;;5082540;28;20199;-64
2023/12/12 03:45:30;;;;;;;15.97;15.40;;;8.70;99.90;;;;;;5080078;28;20210;-64
2023/12/12 03:47:58;;;;;;;15.73;15.13;;;8.70;99.90;;;;;;5077761;28;20227;-64
2023/12/12 03:50:25;;;;;;;15.53;14.93;;;8.70;99.90;;;;;;5078325;28;20203;-65
2023/12/12 03:52:52;;;;;;;15.43;14.87;;;8.60;99.90;;;;;;5076525;28;20254;-64
2023/12/12 03:55:18;;;;;;;15.82;15.23;;;8.60;99.90;;;;;;5076686;28;20206;-64
2023/12/12 03:57:46;;;;;;;14.93;14.43;;;8.70;99.90;;;;;;5076698;28;20228;-63
2023/12/12 04:00:13;;;;;;;15.60;15.07;;;8.80;99.90;;;;;;5073750;28;20215;-63
2023/12/12 04:02:40;;;;;;;14.50;14.00;;;8.80;99.90;;;;;;5072424;28;20611;-64
2023/12/12 04:05:10;;;;;;;15.13;14.63;;;8.80;99.90;;;;;;5072507;28;20203;-63
2023/12/12 04:07:37;;;;;;;14.90;14.40;;;8.90;99.90;;;;;;5072392;28;20333;-64
2023/12/12 04:10:05;;;;;;;15.70;15.13;;;8.90;99.90;;;;;;5072113;28;20227;-64
2023/12/12 04:12:32;;;;;;;15.93;15.33;;;8.90;99.90;;;;;;5068398;28;20230;-63
2023/12/12 04:14:59;;;;;;;15.40;14.80;;;8.90;99.90;;;;;;5071179;28;20204;-63
2023/12/12 04:17:26;;;;;;;15.77;15.20;;;8.90;99.90;;;;;;5071366;28;20234;-63
2023/12/12 04:19:52;;;;;;;16.33;15.73;;;9.00;99.90;;;;;;5071229;28;20219;-63
2023/12/12 04:22:20;;;;;;;16.57;15.97;;;9.00;99.90;;;;;;5070306;28;20203;-63
2023/12/12 04:24:47;;;;;;;15.20;14.70;;;9.00;99.90;;;;;;5068034;28;20204;-63
2023/12/12 04:27:14;;;;;;;15.23;14.73;;;9.00;99.90;;;;;;5072633;28;20466;-63
2023/12/12 04:29:40;;;;;;;16.30;15.70;;;9.00;99.90;;;;;;5070753;28;20203;-62
2023/12/12 04:32:07;;;;;;;15.20;14.60;;;9.00;99.90;;;;;;5070617;28;20215;-63
2023/12/12 04:34:34;;;;;;;15.80;15.20;;;9.00;99.90;;;;;;5071273;28;20210;-64
2023/12/12 04:37:02;;;;;;;14.37;13.87;;;9.00;99.90;;;;;;5071186;28;20686;-64
2023/12/12 04:39:30;;;;;;;15.43;14.93;;;9.10;99.90;;;;;;5070863;28;20203;-64
2023/12/12 04:41:57;;;;;;;15.53;14.93;;;9.10;99.90;;;;;;5071395;28;20203;-63
2023/12/12 04:44:24;;;;;;;15.60;15.10;;;9.20;99.90;;;;;;5071834;28;20202;-64
2023/12/12 04:46:51;;;;;;;15.27;14.77;;;9.20;99.90;;;;;;5071451;28;20234;-64
2023/12/12 04:49:19;;;;;;;15.37;14.83;;;9.30;99.90;;;;;;5071017;28;20212;-65
2023/12/12 04:51:46;;;;;;;15.77;15.17;;;9.30;99.90;;;;;;5071137;28;20295;-64
2023/12/12 04:54:13;;;;;;;16.53;15.93;;;9.30;99.90;;;;;;5071336;28;20200;-62
2023/12/12 04:56:41;;;;;;;16.03;15.43;;;9.30;99.90;;;;;;5070913;28;20227;-63
2023/12/12 04:59:07;;;;;;;15.13;14.53;;;9.30;99.90;;;;;;5078293;28;20207;-63
2023/12/12 05:01:34;;;;;;;14.93;14.43;;;9.40;99.90;;;;;;5080266;28;20678;-63
2023/12/12 05:04:01;;;;;;;15.33;14.83;;;9.40;99.90;;;;;;5073485;28;20221;-63
2023/12/12 05:06:27;;;;;;;15.47;14.93;;;9.40;99.90;;;;;;5072940;28;20238;-64
2023/12/12 05:08:54;;;;;;;15.43;14.93;;;9.50;99.90;;;;;;5072429;28;20203;-65
2023/12/12 05:11:21;;;;;;;15.60;15.00;;;9.50;99.90;;;;;;5071762;28;20290;-62
2023/12/12 05:13:49;;;;;;;14.90;14.40;;;9.50;99.90;;;;;;5070940;28;20206;-63
2023/12/12 05:16:16;;;;;;;15.83;15.30;;;9.60;99.90;;;;;;5071880;28;20562;-64
2023/12/12 05:18:43;;;;;;;15.87;15.27;;;9.60;99.90;;;;;;5071370;28;20207;-62
2023/12/12 05:21:11;;;;;;;15.07;14.57;;;9.60;99.90;;;;;;5071456;28;20742;-62
2023/12/12 05:23:37;;;;;;;15.33;14.83;;;9.70;99.90;;;;;;5070932;28;20538;-62
2023/12/12 05:26:05;;;;;;;15.73;15.23;;;9.70;99.90;;;;;;5071773;28;20199;-63
2023/12/12 05:28:32;;;;;;;17.23;16.63;;;9.70;99.90;;;;;;5068322;28;20227;-62
2023/12/12 05:31:00;;;;;;;15.80;15.27;;;9.70;99.90;;;;;;5072018;28;20234;-63
2023/12/12 05:33:27;;;;;;;16.80;16.20;;;9.60;99.90;;;;;;5071824;28;20223;-63
2023/12/12 05:35:54;;;;;;;17.70;17.10;;;9.60;99.90;;;;;;5076675;28;20211;-62
2023/12/12 05:38:20;;;;;;;17.67;17.07;;;9.60;99.90;;;;;;5075408;28;20668;-62
2023/12/12 05:40:47;;;;;;;18.00;17.40;;;9.50;99.90;;;;;;5074265;28;20199;-63
2023/12/12 05:43:14;;;;;;;17.23;16.63;;;9.50;99.90;;;;;;5075518;28;20195;-66
2023/12/12 05:45:40;;;;;;;16.53;15.93;;;9.50;99.90;;;;;;5074971;28;20589;-65
2023/12/12 05:48:08;;;;;;;15.77;15.23;;;9.50;99.90;;;;;;5074867;28;20227;-65
2023/12/12 05:50:36;;;;;;;16.77;16.17;;;9.50;99.90;;;;;;5074329;28;20756;-64
2023/12/12 05:53:03;;;;;;;15.57;15.03;;;9.60;99.90;;;;;;5073870;28;20318;-65
2023/12/12 05:55:29;;;;;;;15.40;14.87;;;9.60;99.90;;;;;;5074226;28;20229;-64
2023/12/12 05:57:56;;;;;;;14.77;14.27;;;9.60;99.90;;;;;;5070441;28;20223;-65
2023/12/12 06:00:23;;;;;;;15.83;15.30;;;9.70;99.90;;;;;;5074076;28;20693;-66
2023/12/12 06:02:50;;;;;;;15.70;15.13;;;9.70;99.90;;;;;;5074533;28;20203;-67
2023/12/12 06:05:19;;;;;;;16.37;15.80;;;9.90;99.90;;;;;;5081298;28;20205;-65
2023/12/12 06:07:45;;;;;;;16.53;15.93;;;9.70;99.90;;;;;;5078106;28;20241;-65
2023/12/12 06:10:12;;;;;;;15.00;14.50;;;9.70;99.90;;;;;;5076352;28;20208;-66
2023/12/12 06:12:39;;;;;;;15.23;14.73;;;9.70;99.90;;;;;;5077473;28;20720;-67
2023/12/12 06:15:07;;;;;;;16.07;15.50;;;9.70;99.90;;;;;;5071999;28;20291;-66
2023/12/12 06:17:34;;;;;;;15.90;15.30;;;9.70;99.90;;;;;;5070540;28;20657;-64
2023/12/12 06:20:01;;;;;;;16.63;16.07;;;9.70;99.90;;;;;;5075178;28;20227;-64
2023/12/12 06:22:29;;;;;;;17.60;16.93;;;9.80;99.90;;;;;;5078072;28;20600;-65
2023/12/12 06:24:56;;;;;;;17.13;16.53;;;9.80;99.90;;;;;;5072748;28;20210;-63
2023/12/12 06:27:22;;;;;;;15.40;14.90;;;9.90;99.90;;;;;;5074493;28;20249;-63
2023/12/12 06:29:50;;;;;;;15.17;14.67;;;9.90;99.90;;;;;;5067933;28;20215;-63
2023/12/12 06:32:17;;;;;;;15.07;14.57;;;9.90;99.90;;;;;;5075250;28;20219;-64
2023/12/12 06:34:45;;;;;;;16.57;16.00;;;10.00;99.90;;;;;;5074032;28;20211;-63
2023/12/12 06:37:12;;;;;;;15.83;15.30;;;10.00;99.90;;;;;;5072128;28;20640;-63
2023/12/12 06:39:39;;;;;;;15.33;14.83;;;9.90;99.90;;;;;;5074097;28;20716;-63
2023/12/12 06:42:06;;;;;;;14.60;14.10;;;10.00;99.90;;;;;;5075171;28;20208;-63
2023/12/12 06:44:33;;;;;;;15.40;14.90;;;10.00;99.90;;;;;;5072916;28;20234;-63
2023/12/12 06:47:00;;;;;;;16.67;15.87;;;10.00;99.90;;;;;;5072690;28;20219;-62
2023/12/12 06:49:26;;;;;;;15.70;15.17;;;10.00;99.90;;;;;;5073865;28;20231;-61
2023/12/12 06:51:53;;;;;;;15.03;14.53;;;10.00;99.90;;;;;;5072881;28;20216;-63
2023/12/12 06:54:20;;;;;;;15.20;14.70;;;10.00;99.90;;;;;;5073070;28;20576;-64
2023/12/12 06:56:48;;;;;;;15.70;15.20;;;10.00;99.90;;;;;;5073351;28;20223;-61
2023/12/12 06:59:14;;;;;;;16.40;15.80;;;10.00;99.90;;;;;;5073066;28;20206;-62
2023/12/12 07:01:41;;;;;;;15.93;15.37;;;10.00;99.90;;;;;;5072939;28;20588;-61
2023/12/12 07:04:08;;;;;;;15.73;15.20;;;10.00;99.90;;;;;;5072890;28;20210;-65
2023/12/12 07:06:35;;;;;;;15.80;15.27;;;10.10;99.90;;;;;;5070420;28;20224;-63
2023/12/12 07:09:02;;;;;;;16.53;15.97;;;10.10;99.90;;;;;;5072491;28;20203;-63
2023/12/12 07:11:29;;;;;;;15.03;14.53;;;10.00;99.90;;;;;;5072250;28;20306;-64
2023/12/12 07:13:57;;;;;;;15.17;14.60;;;10.00;99.90;;;;;;5071909;28;20224;-61
2023/12/12 07:16:24;;;;;;;15.33;14.83;;;10.10;99.90;;;;;;5071496;28;20199;-62
2023/12/12 07:18:50;;;;;;;15.43;14.90;;;10.00;99.90;;;;;;5071775;28;20204;-65
2023/12/12 07:21:17;;;;;;;17.10;16.50;;;10.10;99.90;;;;;;5070472;28;20203;-64
2023/12/12 07:23:47;;;;;;;17.50;16.87;;;10.10;99.90;;;;;;5071319;28;20825;-64
2023/12/12 07:26:16;;;;;;;15.20;14.70;;;10.10;99.90;;;;;;5071149;28;20206;-63
2023/12/12 07:28:43;;;;;;;16.63;16.03;;;10.10;99.90;;;;;;5066536;28;20657;-67
2023/12/12 07:31:11;;;;;;;15.23;14.73;;;10.10;99.90;;;;;;5071010;28;20203;-64
2023/12/12 07:33:38;;;;;;;15.67;15.13;;;10.20;99.90;;;;;;5069717;28;20215;-64
2023/12/12 07:36:06;;;;;;;15.77;15.17;;;10.10;99.90;;;;;;5074854;28;20211;-66
2023/12/12 07:38:32;;;;;;;15.30;14.77;;;10.20;99.90;;;;;;5067782;28;20912;-66
2023/12/12 07:41:00;;;;;;;14.90;14.40;;;10.20;99.90;;;;;;5071152;28;20210;-63
2023/12/12 07:43:27;;;;;;;14.83;14.33;;;10.30;99.90;;;;;;5088922;28;20208;-65
2023/12/12 07:45:53;;;;;;;15.57;15.03;;;10.40;99.90;;;;;;5070064;28;20203;-65
2023/12/12 07:48:21;;;;;;;15.97;15.43;;;10.40;99.90;;;;;;5070260;28;20356;-63
2023/12/12 07:50:48;;;;;;;16.00;15.40;;;10.40;99.90;;;;;;5070729;28;20210;-64
2023/12/12 07:53:15;;;;;;;15.30;14.80;;;10.40;99.90;;;;;;5071463;28;20223;-64
2023/12/12 07:55:42;;;;;;;15.20;14.70;;;10.40;99.90;;;;;;5069670;28;20199;-64
2023/12/12 07:58:08;;;;;;;15.83;15.30;;;10.50;99.90;;;;;;5068471;28;20791;-64
2023/12/12 08:00:35;;;;;;;16.70;16.10;;;10.50;99.90;;;;;;5069421;28;20214;-65
2023/12/12 08:03:04;;;;;;;17.30;16.73;;;10.50;99.90;;;;;;5070812;28;20206;-65
2023/12/12 08:05:32;;;;;;;16.40;15.80;;;10.50;99.90;;;;;;5071850;28;20708;-66
2023/12/12 08:08:04;;;;;;;15.63;15.10;;;10.50;99.90;;;;;;5070404;28;20578;-66
2023/12/12 08:10:30;;;;;;;17.17;16.57;;;10.50;99.90;;;;;;5070319;28;20291;-68
2023/12/12 08:12:58;;;;;;;18.00;17.37;;;10.40;99.90;;;;;;5069284;28;20219;-67
2023/12/12 08:15:24;;;;;;;17.67;17.07;;;10.50;99.90;;;;;;5075587;28;20207;-64
2023/12/12 08:17:51;;;;;;;19.40;18.67;;;10.50;99.90;;;;;;5072138;28;20227;-63
2023/12/12 08:20:18;;;;;;;20.20;19.50;;;10.50;99.90;;;;;;5069895;28;20203;-65
2023/12/12 08:22:46;;;;;;;21.17;20.43;;;10.50;99.90;;;;;;5072144;28;20207;-64
2023/12/12 08:25:13;;;;;;;21.50;20.73;;;10.50;99.90;;;;;;5071421;28;20203;-63
2023/12/12 08:27:40;;;;;;;22.27;21.50;;;10.50;99.90;;;;;;5071737;28;20309;-64
2023/12/12 08:30:08;;;;;;;22.73;21.93;;;10.50;99.90;;;;;;5070823;28;20515;-66
2023/12/12 08:32:36;;;;;;;20.13;19.43;;;10.60;99.90;;;;;;5071102;28;20199;-63
2023/12/12 08:35:04;;;;;;;21.53;20.77;;;10.60;99.90;;;;;;5071580;28;20201;-64
2023/12/12 08:37:30;;;;;;;22.40;21.60;;;10.60;99.90;;;;;;5070593;28;20227;-67
2023/12/12 08:40:00;;;;;;;23.87;23.07;;;10.60;99.90;;;;;;5070983;28;20701;-65
2023/12/12 08:42:26;;;;;;;22.73;21.93;;;10.60;99.90;;;;;;5070943;28;21141;-65
2023/12/12 08:44:53;;;;;;;23.97;23.13;;;10.70;99.90;;;;;;5070991;28;20207;-65
2023/12/12 08:47:20;;;;;;;29.00;28.00;;;10.70;99.90;;;;;;5068908;28;20230;-65
2023/12/12 08:49:47;;;;;;;27.57;26.60;;;10.80;99.90;;;;;;5070662;28;20230;-63
2023/12/12 08:52:14;;;;;;;31.07;29.93;;;10.70;99.90;;;;;;5069873;28;20211;-65
2023/12/12 08:54:44;;;;;;;27.07;26.13;;;10.80;99.90;;;;;;5071005;28;20637;-63
2023/12/12 08:57:13;;;;;;;35.93;34.63;;;10.70;99.90;;;;;;5068927;28;20219;-62
2023/12/12 08:59:40;;;;;;;29.63;28.63;;;10.70;99.90;;;;;;5070438;28;20268;-65
2023/12/12 09:02:07;;;;;;;31.93;30.83;;;10.70;99.90;;;;;;5070549;28;20204;-65
2023/12/12 09:04:33;;;;;;;28.53;27.53;;;10.70;99.90;;;;;;5070461;28;20212;-63
2023/12/12 09:07:00;;;;;;;31.67;30.57;;;10.80;99.90;;;;;;5070584;28;20228;-64
2023/12/12 09:09:27;;;;;;;28.37;27.37;;;10.80;99.90;;;;;;5070207;28;20581;-63
2023/12/12 09:11:54;;;;;;;32.43;31.33;;;10.80;99.90;;;;;;5070864;28;20218;-64
2023/12/12 09:14:22;;;;;;;29.23;28.23;;;10.70;99.90;;;;;;5069886;28;20254;-63
2023/12/12 09:16:49;;;;;;;33.60;32.40;;;10.80;99.90;;;;;;5070850;28;20708;-64
2023/12/12 09:19:16;;;;;;;29.67;28.63;;;10.80;99.90;;;;;;5071237;28;20199;-63
2023/12/12 09:21:43;;;;;;;27.57;26.63;;;10.80;99.90;;;;;;5071942;28;20239;-64
2023/12/12 09:24:10;;;;;;;23.57;22.77;;;10.80;99.90;;;;;;5068163;28;20211;-67
2023/12/12 09:26:36;;;;;;;24.30;23.50;;;10.80;99.90;;;;;;5070355;28;20223;-66
2023/12/12 09:29:04;;;;;;;23.90;23.10;;;10.90;99.90;;;;;;5071256;28;20203;-67
2023/12/12 09:31:33;;;;;;;27.37;26.37;;;10.90;99.90;;;;;;5070577;28;20642;-65
2023/12/12 09:34:00;;;;;;;25.80;24.90;;;10.90;99.90;;;;;;5086518;28;20572;-66
2023/12/12 09:36:27;;;;;;;20.47;19.77;;;11.00;99.90;;;;;;5079460;28;20211;-67
2023/12/12 09:38:53;;;;;;;21.90;21.10;;;11.10;99.90;;;;;;5070787;28;20670;-67
2023/12/12 09:41:22;;;;;;;27.30;26.37;;;11.10;99.90;;;;;;5069925;28;20207;-66
2023/12/12 09:43:50;;;;;;;24.33;23.47;;;11.10;99.90;;;;;;5070242;28;20207;-66
2023/12/12 09:46:19;;;;;;;20.63;19.93;;;11.10;99.90;;;;;;5067594;28;20195;-68
2023/12/12 09:48:48;;;;;;;19.80;19.10;;;11.10;99.90;;;;;;5069763;28;20580;-67
2023/12/12 09:51:16;;;;;;;21.87;21.03;;;11.10;99.90;;;;;;5069470;28;20200;-67
2023/12/12 09:53:46;;;;;;;19.67;18.97;;;11.20;99.90;;;;;;5070134;28;20223;-69
2023/12/12 09:56:14;;;;;;;19.13;18.43;;;11.20;99.90;;;;;;5069402;28;20757;-66
2023/12/12 09:58:42;;;;;;;19.23;18.53;;;11.20;99.90;;;;;;5073656;28;20207;-68
2023/12/12 10:01:09;;;;;;;19.10;18.40;;;11.30;99.90;;;;;;5073524;28;20616;-68
2023/12/12 10:03:36;;;;;;;18.87;18.17;;;11.30;99.90;;;;;;5071140;28;20581;-67
2023/12/12 10:06:08;;;;;;;18.30;17.70;;;11.40;99.90;;;;;;5069811;28;20200;-68
2023/12/12 10:08:36;;;;;;;19.00;18.30;;;11.30;99.90;;;;;;5068313;28;20219;-66
2023/12/12 10:11:05;;;;;;;20.17;19.47;;;11.40;99.90;;;;;;5073334;28;20200;-67
2023/12/12 10:13:47;;;;;;;18.20;17.60;;;11.40;99.90;;;;;;5070544;28;20230;-64
2023/12/12 10:16:15;;;;;;;17.67;16.97;;;11.50;99.90;;;;;;5069908;28;20199;-68
2023/12/12 10:18:41;;;;;;;17.97;17.37;;;11.40;99.90;;;;;;5070165;28;20678;-67
2023/12/12 10:21:16;;;;;;;18.40;17.80;;;11.40;99.90;;;;;;5073271;28;20195;-68
2023/12/12 10:23:45;;;;;;;21.67;20.93;;;11.50;99.90;;;;;;5073711;28;20792;-64
2023/12/12 10:26:12;;;;;;;20.13;19.43;;;11.50;99.90;;;;;;5071722;28;20853;-67
2023/12/12 10:28:39;;;;;;;20.40;19.70;;;11.50;99.90;;;;;;5068990;28;20199;-66
2023/12/12 10:31:08;;;;;;;20.87;20.17;;;11.50;99.90;;;;;;5073477;28;20203;-66
2023/12/12 10:33:35;;;;;;;22.03;21.23;;;11.60;99.90;;;;;;5070217;28;20698;-67
2023/12/12 10:36:03;;;;;;;22.03;21.23;;;11.50;99.90;;;;;;5073300;28;20214;-66
2023/12/12 10:38:31;;;;;;;25.47;24.57;;;11.50;99.90;;;;;;5070788;28;20234;-66
2023/12/12 10:41:10;;;;;;;28.63;27.63;;;11.60;99.90;;;;;;5069892;28;20239;-66
2023/12/12 10:43:40;;;;;;;27.23;26.30;;;11.60;99.90;;;;;;5070643;28;20202;-66
2023/12/12 10:46:09;;;;;;;27.63;26.73;;;11.70;99.90;;;;;;5073217;28;20268;-68
2023/12/12 10:48:40;;;;;;;34.43;33.23;;;11.80;99.90;;;;;;5071248;28;20214;-65
2023/12/12 10:51:07;;;;;;;24.77;23.93;;;11.90;99.90;;;;;;5071429;28;20218;-64
2023/12/12 10:53:37;;;;;;;26.40;25.47;;;12.00;99.90;;;;;;5069751;28;20808;-66
2023/12/12 10:56:05;;;;;;;26.67;25.73;;;12.00;99.90;;;;;;5069875;28;20207;-66
2023/12/12 10:58:32;;;;;;;23.87;23.07;;;12.10;99.90;;;;;;5070913;28;20237;-65
2023/12/12 11:01:00;;;;;;;25.00;24.13;;;12.00;99.90;;;;;;5072359;28;20203;-65
2023/12/12 11:03:27;;;;;;;24.60;23.77;;;12.00;99.90;;;;;;5072690;28;20292;-66
2023/12/12 11:05:55;;;;;;;24.27;23.43;;;12.00;99.90;;;;;;5068614;28;20207;-71
2023/12/12 11:08:23;;;;;;;23.50;22.70;;;12.10;99.90;;;;;;5073849;28;20709;-65
2023/12/12 11:10:52;;;;;;;20.50;19.80;;;12.10;99.90;;;;;;5072433;28;20207;-66
2023/12/12 11:13:21;;;;;;;20.23;19.53;;;12.20;99.90;;;;;;5069938;28;20230;-66
2023/12/12 11:15:48;;;;;;;22.47;21.67;;;12.20;99.90;;;;;;5069566;28;20222;-66
2023/12/12 11:18:20;;;;;;;21.53;20.83;;;12.20;99.90;;;;;;5075371;28;20231;-65
2023/12/12 11:20:48;;;;;;;22.83;22.03;;;12.10;99.90;;;;;;5072665;28;20211;-66
2023/12/12 11:23:53;;;;;;;22.47;21.67;;;12.10;99.90;;;;;;5073778;28;20634;-66
2023/12/12 11:26:24;;;;;;;20.70;20.00;;;12.10;99.90;;;;;;5071613;28;20222;-65
2023/12/12 11:28:51;;;;;;;20.47;19.77;;;12.10;99.90;;;;;;5072685;28;20219;-66
2023/12/12 11:31:22;;;;;;;19.83;19.13;;;12.10;99.90;;;;;;5069368;28;20215;-65
2023/12/12 11:34:02;;;;;;;19.47;18.77;;;12.10;99.90;;;;;;5073217;28;20671;-65
2023/12/12 11:36:29;;;;;;;20.57;19.87;;;12.20;99.90;;;;;;5078827;28;20278;-66
2023/12/12 11:39:02;;;;;;;20.07;19.37;;;12.30;99.90;;;;;;5080393;28;20214;-67
2023/12/12 11:41:30;;;;;;;21.07;20.37;;;12.30;99.90;;;;;;5074334;28;20219;-66
2023/12/12 11:43:57;;;;;;;20.30;19.60;;;12.40;99.90;;;;;;5069360;28;20207;-66
2023/12/12 11:46:26;;;;;;;22.17;21.37;;;12.50;99.90;;;;;;5070673;28;20202;-65
2023/12/12 11:48:53;;;;;;;21.37;20.67;;;12.50;99.90;;;;;;5073061;28;20203;-66
2023/12/12 11:51:49;;;;;;;21.60;20.80;;;12.60;99.90;;;;;;5070693;28;20233;-65
2023/12/12 11:54:20;;;;;;;23.47;22.67;;;12.60;99.90;;;;;;5057210;28;20231;-65
2023/12/12 11:56:49;;;;;;;23.00;22.20;;;12.70;99.90;;;;;;5070661;28;20250;-66
2023/12/12 11:59:26;;;;;;;22.17;21.40;;;12.70;99.90;;;;;;5071869;28;20557;-65
2023/12/12 12:01:54;;;;;;;21.27;20.57;;;12.80;99.90;;;;;;5069085;28;20305;-65
2023/12/12 12:04:22;;;;;;;23.87;22.97;;;12.80;99.90;;;;;;5070131;28;20203;-65
2023/12/12 12:06:50;;;;;;;26.63;25.73;;;12.80;99.90;;;;;;5071752;28;20643;-65
2023/12/12 12:09:17;;;;;;;22.00;21.27;;;12.80;99.90;;;;;;5071830;28;20200;-67
2023/12/12 12:11:47;;;;;;;23.60;22.80;;;12.90;99.90;;;;;;5071358;28;20203;-68
2023/12/12 12:14:21;;;;;;;21.53;20.80;;;12.90;99.90;;;;;;5069606;28;20219;-67
2023/12/12 12:16:50;;;;;;;24.60;23.80;;;13.00;99.90;;;;;;5070600;28;20249;-65
2023/12/12 12:19:31;;;;;;;23.37;22.57;;;13.00;99.90;;;;;;5073502;28;20207;-66
2023/12/12 12:22:05;;;;;;;21.37;20.67;;;13.10;99.90;;;;;;5071195;28;20199;-65
2023/12/12 12:24:33;;;;;;;17.87;17.27;;;13.20;99.90;;;;;;5071154;28;20195;-67
2023/12/12 12:27:00;;;;;;;19.83;19.13;;;13.20;99.90;;;;;;5074357;28;20601;-67
2023/12/12 12:29:28;;;;;;;18.70;18.10;;;13.30;99.90;;;;;;5072904;28;20199;-66
2023/12/12 12:31:55;;;;;;;19.43;18.73;;;13.30;99.90;;;;;;5078309;28;20202;-66
2023/12/12 12:34:23;;;;;;;21.40;20.67;;;13.40;99.90;;;;;;5071794;28;20226;-67
2023/12/12 12:36:51;;;;;;;17.40;16.80;;;13.50;99.90;;;;;;5071102;28;20223;-65
2023/12/12 12:39:19;;;;;;;13.70;13.20;;;13.50;99.90;;;;;;5069384;28;20203;-65